La Chute, Louisiana
Current Conditions -  °F | °C
As of 5:53 PM on Saturday 22 Nov 2014 (Local Time) from KDTN Reporting Station
Overcast Overcast  
Wind Chill: 66°   Ceiling: 2600
Heat Index: 66°   Visibility: 10mi
Dew Point: 57°   Wind: 8mph
Humidity: 73%   Direction: 120°ESE
Pressure: 29.91"   Gusts: NA
Location:  32.5051°N, 93.7448°W
Report Text: KDTN 222353Z 12007KT 10SM OVC026 19/14 A2991 RMK AO2 SLP127 T01890139 10217 20183 58012
Loading
Personal Weather Stations






























Interactive Weather Map New forecast layout! Learn more

10-Day Weather Forecast

Advertisements
Track Severe Weather on mobile